sensor_id;sensor_type;location;lat;lon;timestamp;temperature;humidity
27164;DHT22;14685;50.618;7.024;2022-12-07T00:01:53;9.90;99.90
27164;DHT22;14685;50.618;7.024;2022-12-07T00:04:20;9.90;99.90
27164;DHT22;14685;50.618;7.024;2022-12-07T00:06:51;9.90;99.90
27164;DHT22;14685;50.618;7.024;2022-12-07T00:09:19;9.80;99.90
27164;DHT22;14685;50.618;7.024;2022-12-07T00:11:49;9.90;99.90
27164;DHT22;14685;50.618;7.024;2022-12-07T00:14:17;9.80;99.90
27164;DHT22;14685;50.618;7.024;2022-12-07T00:16:44;9.80;99.90
27164;DHT22;14685;50.618;7.024;2022-12-07T00:19:13;9.80;99.90
27164;DHT22;14685;50.618;7.024;2022-12-07T00:21:41;9.80;99.90
27164;DHT22;14685;50.618;7.024;2022-12-07T00:24:09;9.90;99.90
27164;DHT22;14685;50.618;7.024;2022-12-07T00:26:38;9.80;99.90
27164;DHT22;14685;50.618;7.024;2022-12-07T00:29:41;9.80;99.90
27164;DHT22;14685;50.618;7.024;2022-12-07T00:32:00;9.80;99.90
27164;DHT22;14685;50.618;7.024;2022-12-07T00:34:28;9.80;99.90
27164;DHT22;14685;50.618;7.024;2022-12-07T00:36:55;9.70;99.90
27164;DHT22;14685;50.618;7.024;2022-12-07T00:39:21;9.70;99.90
27164;DHT22;14685;50.618;7.024;2022-12-07T00:41:48;9.70;99.90
27164;DHT22;14685;50.618;7.024;2022-12-07T00:44:15;9.70;99.90
27164;DHT22;14685;50.618;7.024;2022-12-07T00:46:43;9.70;99.90
27164;DHT22;14685;50.618;7.024;2022-12-07T00:49:11;9.70;99.90
27164;DHT22;14685;50.618;7.024;2022-12-07T00:51:38;9.70;99.90
27164;DHT22;14685;50.618;7.024;2022-12-07T00:54:09;9.70;99.90
27164;DHT22;14685;50.618;7.024;2022-12-07T00:56:36;9.70;99.90
27164;DHT22;14685;50.618;7.024;2022-12-07T00:59:04;9.70;99.90
27164;DHT22;14685;50.618;7.024;2022-12-07T01:01:35;9.70;99.90
27164;DHT22;14685;50.618;7.024;2022-12-07T01:04:03;9.70;99.90
27164;DHT22;14685;50.618;7.024;2022-12-07T01:06:30;9.60;99.90
27164;DHT22;14685;50.618;7.024;2022-12-07T01:08:57;9.60;99.90
27164;DHT22;14685;50.618;7.024;2022-12-07T01:11:28;9.60;99.90
27164;DHT22;14685;50.618;7.024;2022-12-07T01:13:58;9.60;99.90
27164;DHT22;14685;50.618;7.024;2022-12-07T01:16:27;9.60;99.90
27164;DHT22;14685;50.618;7.024;2022-12-07T01:18:55;9.60;99.90
27164;DHT22;14685;50.618;7.024;2022-12-07T01:21:28;9.60;99.90
27164;DHT22;14685;50.618;7.024;2022-12-07T01:23:57;9.60;99.90
27164;DHT22;14685;50.618;7.024;2022-12-07T01:26:25;9.60;99.90
27164;DHT22;14685;50.618;7.024;2022-12-07T01:28:53;9.60;99.90
27164;DHT22;14685;50.618;7.024;2022-12-07T01:31:23;9.60;99.90
27164;DHT22;14685;50.618;7.024;2022-12-07T01:33:56;9.60;99.90
27164;DHT22;14685;50.618;7.024;2022-12-07T01:36:34;9.60;99.90
27164;DHT22;14685;50.618;7.024;2022-12-07T01:39:06;9.60;99.90
27164;DHT22;14685;50.618;7.024;2022-12-07T01:41:35;9.60;99.90
27164;DHT22;14685;50.618;7.024;2022-12-07T01:47:26;9.60;99.90
27164;DHT22;14685;50.618;7.024;2022-12-07T01:49:52;9.60;99.90
27164;DHT22;14685;50.618;7.024;2022-12-07T01:52:23;9.60;99.90
27164;DHT22;14685;50.618;7.024;2022-12-07T01:54:56;9.60;99.90
27164;DHT22;14685;50.618;7.024;2022-12-07T01:57:24;9.60;99.90
27164;DHT22;14685;50.618;7.024;2022-12-07T01:59:52;9.50;99.90
27164;DHT22;14685;50.618;7.024;2022-12-07T02:02:24;9.60;99.90
27164;DHT22;14685;50.618;7.024;2022-12-07T02:04:53;9.60;99.90
27164;DHT22;14685;50.618;7.024;2022-12-07T02:07:22;9.60;99.90
27164;DHT22;14685;50.618;7.024;2022-12-07T02:09:49;9.60;99.90
27164;DHT22;14685;50.618;7.024;2022-12-07T02:12:16;9.60;99.90
27164;DHT22;14685;50.618;7.024;2022-12-07T02:14:43;9.60;99.90
27164;DHT22;14685;50.618;7.024;2022-12-07T02:31:31;9.50;99.90
27164;DHT22;14685;50.618;7.024;2022-12-07T02:34:19;9.50;99.90
27164;DHT22;14685;50.618;7.024;2022-12-07T02:36:54;9.50;99.90
27164;DHT22;14685;50.618;7.024;2022-12-07T02:39:28;9.50;99.90
27164;DHT22;14685;50.618;7.024;2022-12-07T02:42:02;9.50;99.90
27164;DHT22;14685;50.618;7.024;2022-12-07T02:44:31;9.50;99.90
27164;DHT22;14685;50.618;7.024;2022-12-07T02:47:05;9.40;99.90
27164;DHT22;14685;50.618;7.024;2022-12-07T02:49:33;9.50;99.90
27164;DHT22;14685;50.618;7.024;2022-12-07T02:52:02;9.50;99.90
27164;DHT22;14685;50.618;7.024;2022-12-07T02:54:29;9.40;99.90
27164;DHT22;14685;50.618;7.024;2022-12-07T02:57:22;9.40;99.90
27164;DHT22;14685;50.618;7.024;2022-12-07T03:00:04;9.40;99.90
27164;DHT22;14685;50.618;7.024;2022-12-07T03:02:42;9.40;99.90
27164;DHT22;14685;50.618;7.024;2022-12-07T03:11:00;9.40;99.90
27164;DHT22;14685;50.618;7.024;2022-12-07T03:13:35;9.50;99.90
27164;DHT22;14685;50.618;7.024;2022-12-07T03:16:16;9.50;99.90
27164;DHT22;14685;50.618;7.024;2022-12-07T03:19:13;9.40;99.90
27164;DHT22;14685;50.618;7.024;2022-12-07T03:21:45;9.50;99.90
27164;DHT22;14685;50.618;7.024;2022-12-07T03:24:19;9.50;99.90
27164;DHT22;14685;50.618;7.024;2022-12-07T03:26:52;9.50;99.90
27164;DHT22;14685;50.618;7.024;2022-12-07T03:29:27;9.50;99.90
27164;DHT22;14685;50.618;7.024;2022-12-07T03:32:16;9.40;99.90
27164;DHT22;14685;50.618;7.024;2022-12-07T03:34:51;9.50;99.90
27164;DHT22;14685;50.618;7.024;2022-12-07T03:37:54;9.50;99.90
27164;DHT22;14685;50.618;7.024;2022-12-07T03:40:32;9.50;99.90
27164;DHT22;14685;50.618;7.024;2022-12-07T03:43:01;9.50;99.90
27164;DHT22;14685;50.618;7.024;2022-12-07T03:48:44;9.40;99.90
27164;DHT22;14685;50.618;7.024;2022-12-07T03:51:22;9.40;99.90
27164;DHT22;14685;50.618;7.024;2022-12-07T03:54:43;9.40;99.90
27164;DHT22;14685;50.618;7.024;2022-12-07T03:56:52;9.40;99.90
27164;DHT22;14685;50.618;7.024;2022-12-07T03:59:21;9.40;99.90
27164;DHT22;14685;50.618;7.024;2022-12-07T04:01:54;9.40;99.90
27164;DHT22;14685;50.618;7.024;2022-12-07T04:04:22;9.40;99.90
27164;DHT22;14685;50.618;7.024;2022-12-07T04:06:49;9.40;99.90
27164;DHT22;14685;50.618;7.024;2022-12-07T04:09:17;9.40;99.90
27164;DHT22;14685;50.618;7.024;2022-12-07T04:11:44;9.40;99.90
27164;DHT22;14685;50.618;7.024;2022-12-07T04:14:11;9.40;99.90
27164;DHT22;14685;50.618;7.024;2022-12-07T04:16:48;9.40;99.90
27164;DHT22;14685;50.618;7.024;2022-12-07T04:19:17;9.40;99.90
27164;DHT22;14685;50.618;7.024;2022-12-07T04:21:44;9.40;99.90
27164;DHT22;14685;50.618;7.024;2022-12-07T04:24:13;9.40;99.90
27164;DHT22;14685;50.618;7.024;2022-12-07T04:26:41;9.50;99.90
27164;DHT22;14685;50.618;7.024;2022-12-07T04:29:08;9.40;99.90
27164;DHT22;14685;50.618;7.024;2022-12-07T04:31:36;9.50;99.90
27164;DHT22;14685;50.618;7.024;2022-12-07T04:34:03;9.50;99.90
27164;DHT22;14685;50.618;7.024;2022-12-07T04:36:30;9.50;99.90
27164;DHT22;14685;50.618;7.024;2022-12-07T04:38:57;9.50;99.90
27164;DHT22;14685;50.618;7.024;2022-12-07T04:41:24;9.50;99.90
27164;DHT22;14685;50.618;7.024;2022-12-07T04:43:56;9.50;99.90
27164;DHT22;14685;50.618;7.024;2022-12-07T04:46:24;9.40;99.90
27164;DHT22;14685;50.618;7.024;2022-12-07T04:48:52;9.50;99.90
27164;DHT22;14685;50.618;7.024;2022-12-07T04:51:22;9.50;99.90
27164;DHT22;14685;50.618;7.024;2022-12-07T04:53:49;9.50;99.90
27164;DHT22;14685;50.618;7.024;2022-12-07T04:56:17;9.50;99.90
27164;DHT22;14685;50.618;7.024;2022-12-07T04:58:45;9.50;99.90
27164;DHT22;14685;50.618;7.024;2022-12-07T05:01:15;9.50;99.90
27164;DHT22;14685;50.618;7.024;2022-12-07T05:03:43;9.50;99.90
27164;DHT22;14685;50.618;7.024;2022-12-07T05:06:10;9.50;99.90
27164;DHT22;14685;50.618;7.024;2022-12-07T05:08:39;9.50;99.90
27164;DHT22;14685;50.618;7.024;2022-12-07T05:11:10;9.50;99.90
27164;DHT22;14685;50.618;7.024;2022-12-07T05:13:57;9.50;99.90
27164;DHT22;14685;50.618;7.024;2022-12-07T05:16:25;9.50;99.90
27164;DHT22;14685;50.618;7.024;2022-12-07T05:18:52;9.50;99.90
27164;DHT22;14685;50.618;7.024;2022-12-07T05:21:19;9.50;99.90
27164;DHT22;14685;50.618;7.024;2022-12-07T05:23:48;9.50;99.90
27164;DHT22;14685;50.618;7.024;2022-12-07T05:26:15;9.50;99.90
27164;DHT22;14685;50.618;7.024;2022-12-07T05:28:41;9.50;99.90
27164;DHT22;14685;50.618;7.024;2022-12-07T05:31:09;9.50;99.90
27164;DHT22;14685;50.618;7.024;2022-12-07T05:33:36;9.40;99.90
27164;DHT22;14685;50.618;7.024;2022-12-07T05:36:06;9.40;99.90
27164;DHT22;14685;50.618;7.024;2022-12-07T05:38:33;9.40;99.90
27164;DHT22;14685;50.618;7.024;2022-12-07T05:41:05;9.40;99.90
27164;DHT22;14685;50.618;7.024;2022-12-07T05:43:33;9.40;99.90
27164;DHT22;14685;50.618;7.024;2022-12-07T05:46:00;9.40;99.90
27164;DHT22;14685;50.618;7.024;2022-12-07T05:48:27;9.40;99.90
27164;DHT22;14685;50.618;7.024;2022-12-07T05:50:54;9.40;99.90
27164;DHT22;14685;50.618;7.024;2022-12-07T05:53:21;9.40;99.90
27164;DHT22;14685;50.618;7.024;2022-12-07T05:55:49;9.40;99.90
27164;DHT22;14685;50.618;7.024;2022-12-07T05:58:17;9.40;99.90
27164;DHT22;14685;50.618;7.024;2022-12-07T06:01:02;9.40;99.90
27164;DHT22;14685;50.618;7.024;2022-12-07T06:03:29;9.40;99.90
27164;DHT22;14685;50.618;7.024;2022-12-07T06:05:57;9.40;99.90
27164;DHT22;14685;50.618;7.024;2022-12-07T06:08:24;9.40;99.90
27164;DHT22;14685;50.618;7.024;2022-12-07T06:10:51;9.40;99.90
27164;DHT22;14685;50.618;7.024;2022-12-07T06:13:41;9.50;99.90
27164;DHT22;14685;50.618;7.024;2022-12-07T06:16:14;9.50;99.90
27164;DHT22;14685;50.618;7.024;2022-12-07T06:18:41;9.50;99.90
27164;DHT22;14685;50.618;7.024;2022-12-07T06:21:07;9.50;99.90
27164;DHT22;14685;50.618;7.024;2022-12-07T06:23:36;9.50;99.90
27164;DHT22;14685;50.618;7.024;2022-12-07T06:26:03;9.50;99.90
27164;DHT22;14685;50.618;7.024;2022-12-07T06:28:29;9.50;99.90
27164;DHT22;14685;50.618;7.024;2022-12-07T06:31:01;9.40;99.90
27164;DHT22;14685;50.618;7.024;2022-12-07T06:33:33;9.40;99.90
27164;DHT22;14685;50.618;7.024;2022-12-07T06:36:00;9.50;99.90
27164;DHT22;14685;50.618;7.024;2022-12-07T06:38:27;9.50;99.90
27164;DHT22;14685;50.618;7.024;2022-12-07T06:40:54;9.50;99.90
27164;DHT22;14685;50.618;7.024;2022-12-07T06:43:22;9.40;99.90
27164;DHT22;14685;50.618;7.024;2022-12-07T06:45:48;9.40;99.90
27164;DHT22;14685;50.618;7.024;2022-12-07T06:48:16;9.40;99.90
27164;DHT22;14685;50.618;7.024;2022-12-07T06:50:47;9.40;99.90
27164;DHT22;14685;50.618;7.024;2022-12-07T06:53:21;9.40;99.90
27164;DHT22;14685;50.618;7.024;2022-12-07T06:55:47;9.40;99.90
27164;DHT22;14685;50.618;7.024;2022-12-07T06:58:15;9.40;99.90
27164;DHT22;14685;50.618;7.024;2022-12-07T07:00:43;9.40;99.90
27164;DHT22;14685;50.618;7.024;2022-12-07T07:03:10;9.40;99.90
27164;DHT22;14685;50.618;7.024;2022-12-07T07:05:37;9.40;99.90
27164;DHT22;14685;50.618;7.024;2022-12-07T07:08:04;9.30;99.90
27164;DHT22;14685;50.618;7.024;2022-12-07T07:10:48;9.30;99.90
27164;DHT22;14685;50.618;7.024;2022-12-07T07:13:14;9.30;99.90
27164;DHT22;14685;50.618;7.024;2022-12-07T07:15:41;9.20;99.90
27164;DHT22;14685;50.618;7.024;2022-12-07T07:18:08;9.20;99.90
27164;DHT22;14685;50.618;7.024;2022-12-07T07:20:36;9.20;99.90
27164;DHT22;14685;50.618;7.024;2022-12-07T07:23:04;9.20;99.90
27164;DHT22;14685;50.618;7.024;2022-12-07T07:25:31;9.20;99.90
27164;DHT22;14685;50.618;7.024;2022-12-07T07:27:59;9.10;99.90
27164;DHT22;14685;50.618;7.024;2022-12-07T07:30:27;9.10;99.90
27164;DHT22;14685;50.618;7.024;2022-12-07T07:32:58;9.10;99.90
27164;DHT22;14685;50.618;7.024;2022-12-07T07:35:26;9.10;99.90
27164;DHT22;14685;50.618;7.024;2022-12-07T07:37:54;9.10;99.90
27164;DHT22;14685;50.618;7.024;2022-12-07T07:40:21;9.10;99.90
27164;DHT22;14685;50.618;7.024;2022-12-07T07:42:49;9.10;99.90
27164;DHT22;14685;50.618;7.024;2022-12-07T07:45:17;9.10;99.90
27164;DHT22;14685;50.618;7.024;2022-12-07T07:47:44;9.10;99.90
27164;DHT22;14685;50.618;7.024;2022-12-07T07:50:11;9.10;99.90
27164;DHT22;14685;50.618;7.024;2022-12-07T07:52:38;9.10;99.90
27164;DHT22;14685;50.618;7.024;2022-12-07T07:55:06;9.10;99.90
27164;DHT22;14685;50.618;7.024;2022-12-07T07:57:35;9.10;99.90
27164;DHT22;14685;50.618;7.024;2022-12-07T08:00:06;9.10;99.90
27164;DHT22;14685;50.618;7.024;2022-12-07T08:02:33;9.10;99.90
27164;DHT22;14685;50.618;7.024;2022-12-07T08:05:00;9.10;99.90
27164;DHT22;14685;50.618;7.024;2022-12-07T08:07:27;9.10;99.90
27164;DHT22;14685;50.618;7.024;2022-12-07T08:09:54;9.20;99.90
27164;DHT22;14685;50.618;7.024;2022-12-07T08:12:21;9.20;99.90
27164;DHT22;14685;50.618;7.024;2022-12-07T08:14:48;9.10;99.90
27164;DHT22;14685;50.618;7.024;2022-12-07T08:17:15;9.10;99.90
27164;DHT22;14685;50.618;7.024;2022-12-07T08:19:42;9.10;99.90
27164;DHT22;14685;50.618;7.024;2022-12-07T08:22:10;9.10;99.90
27164;DHT22;14685;50.618;7.024;2022-12-07T08:24:37;9.10;99.90
27164;DHT22;14685;50.618;7.024;2022-12-07T08:27:04;9.10;99.90
27164;DHT22;14685;50.618;7.024;2022-12-07T08:29:31;9.10;99.90
27164;DHT22;14685;50.618;7.024;2022-12-07T08:31:58;9.10;99.90
27164;DHT22;14685;50.618;7.024;2022-12-07T08:34:34;9.20;99.90
27164;DHT22;14685;50.618;7.024;2022-12-07T08:37:02;9.10;99.90
27164;DHT22;14685;50.618;7.024;2022-12-07T08:39:30;9.20;99.90
27164;DHT22;14685;50.618;7.024;2022-12-07T08:41:58;9.20;99.90
27164;DHT22;14685;50.618;7.024;2022-12-07T08:44:26;9.20;99.90
27164;DHT22;14685;50.618;7.024;2022-12-07T08:46:56;9.20;99.90
27164;DHT22;14685;50.618;7.024;2022-12-07T08:49:34;9.20;99.90
27164;DHT22;14685;50.618;7.024;2022-12-07T08:52:04;9.20;99.90
27164;DHT22;14685;50.618;7.024;2022-12-07T08:54:33;9.20;99.90
27164;DHT22;14685;50.618;7.024;2022-12-07T08:57:01;9.20;99.90
27164;DHT22;14685;50.618;7.024;2022-12-07T08:59:28;9.20;99.90
27164;DHT22;14685;50.618;7.024;2022-12-07T09:01:56;9.20;99.90
27164;DHT22;14685;50.618;7.024;2022-12-07T09:04:23;9.20;99.90
27164;DHT22;14685;50.618;7.024;2022-12-07T09:06:50;9.20;99.90
27164;DHT22;14685;50.618;7.024;2022-12-07T09:09:17;9.20;99.90
27164;DHT22;14685;50.618;7.024;2022-12-07T09:11:44;9.20;99.90
27164;DHT22;14685;50.618;7.024;2022-12-07T09:14:12;9.20;99.90
27164;DHT22;14685;50.618;7.024;2022-12-07T09:16:39;9.30;99.90
27164;DHT22;14685;50.618;7.024;2022-12-07T09:19:07;9.40;99.90
27164;DHT22;14685;50.618;7.024;2022-12-07T09:21:34;9.50;99.90
27164;DHT22;14685;50.618;7.024;2022-12-07T09:24:01;9.60;99.90
27164;DHT22;14685;50.618;7.024;2022-12-07T09:26:28;9.70;99.90
27164;DHT22;14685;50.618;7.024;2022-12-07T09:28:56;9.80;99.90
27164;DHT22;14685;50.618;7.024;2022-12-07T09:31:25;9.80;99.90
27164;DHT22;14685;50.618;7.024;2022-12-07T09:34:00;9.90;99.90
27164;DHT22;14685;50.618;7.024;2022-12-07T09:36:28;10.00;99.90
27164;DHT22;14685;50.618;7.024;2022-12-07T09:38:55;10.10;99.90
27164;DHT22;14685;50.618;7.024;2022-12-07T09:41:24;10.10;99.90
27164;DHT22;14685;50.618;7.024;2022-12-07T09:43:53;10.20;99.90
27164;DHT22;14685;50.618;7.024;2022-12-07T09:46:24;10.30;99.90
27164;DHT22;14685;50.618;7.024;2022-12-07T09:48:51;10.30;99.90
27164;DHT22;14685;50.618;7.024;2022-12-07T09:51:20;10.40;99.90
27164;DHT22;14685;50.618;7.024;2022-12-07T09:53:52;10.40;99.90
27164;DHT22;14685;50.618;7.024;2022-12-07T09:56:20;10.30;99.90
27164;DHT22;14685;50.618;7.024;2022-12-07T09:58:58;10.40;99.90
27164;DHT22;14685;50.618;7.024;2022-12-07T10:01:32;10.30;99.90
27164;DHT22;14685;50.618;7.024;2022-12-07T10:04:22;10.30;99.90
27164;DHT22;14685;50.618;7.024;2022-12-07T10:06:50;10.20;99.90
27164;DHT22;14685;50.618;7.024;2022-12-07T10:09:20;10.20;99.90
27164;DHT22;14685;50.618;7.024;2022-12-07T10:12:10;10.20;99.90
27164;DHT22;14685;50.618;7.024;2022-12-07T10:14:51;10.20;99.90
27164;DHT22;14685;50.618;7.024;2022-12-07T10:17:41;10.20;99.90
27164;DHT22;14685;50.618;7.024;2022-12-07T10:23:02;10.30;99.90
27164;DHT22;14685;50.618;7.024;2022-12-07T10:25:32;10.30;99.90
27164;DHT22;14685;50.618;7.024;2022-12-07T10:28:13;10.20;99.90
27164;DHT22;14685;50.618;7.024;2022-12-07T10:31:03;10.20;99.90
27164;DHT22;14685;50.618;7.024;2022-12-07T10:33:58;10.20;99.90
27164;DHT22;14685;50.618;7.024;2022-12-07T10:36:35;10.20;99.90
27164;DHT22;14685;50.618;7.024;2022-12-07T10:39:16;10.20;99.90
27164;DHT22;14685;50.618;7.024;2022-12-07T10:41:58;10.10;99.90
27164;DHT22;14685;50.618;7.024;2022-12-07T10:44:31;10.10;99.90
27164;DHT22;14685;50.618;7.024;2022-12-07T10:58:57;10.00;99.90
27164;DHT22;14685;50.618;7.024;2022-12-07T11:01:32;10.00;99.90
27164;DHT22;14685;50.618;7.024;2022-12-07T11:06:37;10.00;99.90
27164;DHT22;14685;50.618;7.024;2022-12-07T11:18:10;9.90;99.90
27164;DHT22;14685;50.618;7.024;2022-12-07T11:26:25;9.90;99.90
27164;DHT22;14685;50.618;7.024;2022-12-07T11:34:39;9.90;99.90
27164;DHT22;14685;50.618;7.024;2022-12-07T11:37:15;9.90;99.90
27164;DHT22;14685;50.618;7.024;2022-12-07T11:39:56;9.90;99.90
27164;DHT22;14685;50.618;7.024;2022-12-07T11:42:44;9.90;99.90
27164;DHT22;14685;50.618;7.024;2022-12-07T11:45:20;9.90;99.90
27164;DHT22;14685;50.618;7.024;2022-12-07T11:48:03;9.90;99.90
27164;DHT22;14685;50.618;7.024;2022-12-07T11:50:56;9.80;99.90
27164;DHT22;14685;50.618;7.024;2022-12-07T11:53:27;9.90;99.90
27164;DHT22;14685;50.618;7.024;2022-12-07T11:56:08;9.80;99.90
27164;DHT22;14685;50.618;7.024;2022-12-07T12:01:24;9.70;99.90
27164;DHT22;14685;50.618;7.024;2022-12-07T12:04:00;9.70;99.90
27164;DHT22;14685;50.618;7.024;2022-12-07T12:06:27;9.70;99.90
27164;DHT22;14685;50.618;7.024;2022-12-07T12:09:05;9.60;99.90
27164;DHT22;14685;50.618;7.024;2022-12-07T12:15:33;9.70;99.90
27164;DHT22;14685;50.618;7.024;2022-12-07T12:23:43;9.70;99.90
27164;DHT22;14685;50.618;7.024;2022-12-07T12:26:21;9.60;99.90
27164;DHT22;14685;50.618;7.024;2022-12-07T12:28:56;9.60;99.90
27164;DHT22;14685;50.618;7.024;2022-12-07T12:31:39;9.60;99.90
27164;DHT22;14685;50.618;7.024;2022-12-07T12:34:32;9.70;99.90
27164;DHT22;14685;50.618;7.024;2022-12-07T12:36:59;9.70;99.90
27164;DHT22;14685;50.618;7.024;2022-12-07T12:39:26;9.70;99.90
27164;DHT22;14685;50.618;7.024;2022-12-07T12:41:55;9.80;99.90
27164;DHT22;14685;50.618;7.024;2022-12-07T12:44:42;9.80;99.90
27164;DHT22;14685;50.618;7.024;2022-12-07T12:50:35;9.80;99.90
27164;DHT22;14685;50.618;7.024;2022-12-07T12:53:34;9.80;99.90
27164;DHT22;14685;50.618;7.024;2022-12-07T12:58:46;9.80;99.90
27164;DHT22;14685;50.618;7.024;2022-12-07T13:01:37;9.80;99.90
27164;DHT22;14685;50.618;7.024;2022-12-07T13:07:47;9.80;99.90
27164;DHT22;14685;50.618;7.024;2022-12-07T13:10:03;9.80;99.90
27164;DHT22;14685;50.618;7.024;2022-12-07T13:12:31;9.80;99.90
27164;DHT22;14685;50.618;7.024;2022-12-07T13:14:58;9.80;99.90
27164;DHT22;14685;50.618;7.024;2022-12-07T13:20:01;9.70;99.90
27164;DHT22;14685;50.618;7.024;2022-12-07T13:28:11;9.60;99.90
27164;DHT22;14685;50.618;7.024;2022-12-07T13:30:58;9.60;99.90
27164;DHT22;14685;50.618;7.024;2022-12-07T13:33:28;9.60;99.90
27164;DHT22;14685;50.618;7.024;2022-12-07T13:35:56;9.70;99.90
27164;DHT22;14685;50.618;7.024;2022-12-07T13:38:35;9.60;99.90
27164;DHT22;14685;50.618;7.024;2022-12-07T13:41:18;9.60;99.90
27164;DHT22;14685;50.618;7.024;2022-12-07T13:43:52;9.60;99.90
27164;DHT22;14685;50.618;7.024;2022-12-07T13:47:15;9.70;99.90
27164;DHT22;14685;50.618;7.024;2022-12-07T13:49:24;9.60;99.90
27164;DHT22;14685;50.618;7.024;2022-12-07T13:51:53;9.70;99.90
27164;DHT22;14685;50.618;7.024;2022-12-07T13:54:21;9.70;99.90
27164;DHT22;14685;50.618;7.024;2022-12-07T13:56:50;9.60;99.90
27164;DHT22;14685;50.618;7.024;2022-12-07T13:59:28;9.70;99.90
27164;DHT22;14685;50.618;7.024;2022-12-07T14:01:59;9.70;99.90
27164;DHT22;14685;50.618;7.024;2022-12-07T14:04:36;9.70;99.90
27164;DHT22;14685;50.618;7.024;2022-12-07T14:10:04;9.60;99.90
27164;DHT22;14685;50.618;7.024;2022-12-07T14:12:32;9.60;99.90
27164;DHT22;14685;50.618;7.024;2022-12-07T14:15:03;9.60;99.90
27164;DHT22;14685;50.618;7.024;2022-12-07T14:17:31;9.60;99.90
27164;DHT22;14685;50.618;7.024;2022-12-07T14:20:00;9.60;99.90
27164;DHT22;14685;50.618;7.024;2022-12-07T14:27:57;9.60;99.90
27164;DHT22;14685;50.618;7.024;2022-12-07T14:30:27;9.60;99.90
27164;DHT22;14685;50.618;7.024;2022-12-07T14:32:58;9.60;99.90
27164;DHT22;14685;50.618;7.024;2022-12-07T14:35:27;9.60;99.90
27164;DHT22;14685;50.618;7.024;2022-12-07T14:37:54;9.60;99.90
27164;DHT22;14685;50.618;7.024;2022-12-07T14:40:24;9.60;99.90
27164;DHT22;14685;50.618;7.024;2022-12-07T14:42:56;9.60;99.90
27164;DHT22;14685;50.618;7.024;2022-12-07T14:45:24;9.60;99.90
27164;DHT22;14685;50.618;7.024;2022-12-07T14:47:50;9.60;99.90
27164;DHT22;14685;50.618;7.024;2022-12-07T14:50:42;9.60;99.90
27164;DHT22;14685;50.618;7.024;2022-12-07T14:53:40;9.70;99.90
27164;DHT22;14685;50.618;7.024;2022-12-07T14:56:08;9.60;99.90
27164;DHT22;14685;50.618;7.024;2022-12-07T14:58:35;9.60;99.90
27164;DHT22;14685;50.618;7.024;2022-12-07T15:01:02;9.60;99.90
27164;DHT22;14685;50.618;7.024;2022-12-07T15:03:28;9.60;99.90
27164;DHT22;14685;50.618;7.024;2022-12-07T15:05:56;9.70;99.90
27164;DHT22;14685;50.618;7.024;2022-12-07T15:08:23;9.70;99.90
27164;DHT22;14685;50.618;7.024;2022-12-07T15:10:50;9.60;99.90
27164;DHT22;14685;50.618;7.024;2022-12-07T15:13:16;9.60;99.90
27164;DHT22;14685;50.618;7.024;2022-12-07T15:16:19;9.70;99.90
27164;DHT22;14685;50.618;7.024;2022-12-07T15:18:47;9.60;99.90
27164;DHT22;14685;50.618;7.024;2022-12-07T15:21:34;9.60;99.90
27164;DHT22;14685;50.618;7.024;2022-12-07T15:24:01;9.60;99.90
27164;DHT22;14685;50.618;7.024;2022-12-07T15:26:28;9.60;99.90
27164;DHT22;14685;50.618;7.024;2022-12-07T15:28:55;9.60;99.90
27164;DHT22;14685;50.618;7.024;2022-12-07T15:31:22;9.60;99.90
27164;DHT22;14685;50.618;7.024;2022-12-07T15:34:09;9.60;99.90
27164;DHT22;14685;50.618;7.024;2022-12-07T15:36:35;9.60;99.90
27164;DHT22;14685;50.618;7.024;2022-12-07T15:39:03;9.60;99.90
27164;DHT22;14685;50.618;7.024;2022-12-07T15:41:40;9.50;99.90
27164;DHT22;14685;50.618;7.024;2022-12-07T15:44:11;9.50;99.90
27164;DHT22;14685;50.618;7.024;2022-12-07T15:46:58;9.60;99.90
27164;DHT22;14685;50.618;7.024;2022-12-07T15:49:27;9.60;99.90
27164;DHT22;14685;50.618;7.024;2022-12-07T15:51:54;9.50;99.90
27164;DHT22;14685;50.618;7.024;2022-12-07T15:54:28;9.50;99.90
27164;DHT22;14685;50.618;7.024;2022-12-07T15:57:00;9.50;99.90
27164;DHT22;14685;50.618;7.024;2022-12-07T15:59:28;9.50;99.90
27164;DHT22;14685;50.618;7.024;2022-12-07T16:01:57;9.50;99.90
27164;DHT22;14685;50.618;7.024;2022-12-07T16:04:26;9.50;99.90
27164;DHT22;14685;50.618;7.024;2022-12-07T16:06:57;9.50;99.90
27164;DHT22;14685;50.618;7.024;2022-12-07T16:09:24;9.50;99.90
27164;DHT22;14685;50.618;7.024;2022-12-07T16:11:55;9.50;99.90
27164;DHT22;14685;50.618;7.024;2022-12-07T16:14:25;9.50;99.90
27164;DHT22;14685;50.618;7.024;2022-12-07T16:16:54;9.50;99.90
27164;DHT22;14685;50.618;7.024;2022-12-07T16:19:23;9.60;99.90
27164;DHT22;14685;50.618;7.024;2022-12-07T16:21:51;9.50;99.90
27164;DHT22;14685;50.618;7.024;2022-12-07T16:24:19;9.50;99.90
27164;DHT22;14685;50.618;7.024;2022-12-07T16:26:48;9.40;99.90
27164;DHT22;14685;50.618;7.024;2022-12-07T16:29:19;9.40;99.90
27164;DHT22;14685;50.618;7.024;2022-12-07T16:31:50;9.40;99.90
27164;DHT22;14685;50.618;7.024;2022-12-07T16:34:18;9.40;99.90
27164;DHT22;14685;50.618;7.024;2022-12-07T16:36:45;9.40;99.90
27164;DHT22;14685;50.618;7.024;2022-12-07T16:39:33;9.50;99.90
27164;DHT22;14685;50.618;7.024;2022-12-07T16:42:01;9.40;99.90
27164;DHT22;14685;50.618;7.024;2022-12-07T16:44:28;9.40;99.90
27164;DHT22;14685;50.618;7.024;2022-12-07T16:46:55;9.40;99.90
27164;DHT22;14685;50.618;7.024;2022-12-07T16:49:22;9.40;99.90
27164;DHT22;14685;50.618;7.024;2022-12-07T16:51:51;9.40;99.90
27164;DHT22;14685;50.618;7.024;2022-12-07T16:54:38;9.40;99.90
27164;DHT22;14685;50.618;7.024;2022-12-07T16:57:05;9.40;99.90
27164;DHT22;14685;50.618;7.024;2022-12-07T16:59:32;9.40;99.90
27164;DHT22;14685;50.618;7.024;2022-12-07T17:01:59;9.40;99.90
27164;DHT22;14685;50.618;7.024;2022-12-07T17:04:26;9.40;99.90
27164;DHT22;14685;50.618;7.024;2022-12-07T17:07:02;9.40;99.90
27164;DHT22;14685;50.618;7.024;2022-12-07T17:09:42;9.30;99.90
27164;DHT22;14685;50.618;7.024;2022-12-07T17:12:11;9.40;99.90
27164;DHT22;14685;50.618;7.024;2022-12-07T17:14:51;9.50;99.90
27164;DHT22;14685;50.618;7.024;2022-12-07T17:17:37;9.50;99.90
27164;DHT22;14685;50.618;7.024;2022-12-07T17:20:04;9.60;99.90
27164;DHT22;14685;50.618;7.024;2022-12-07T17:22:32;9.50;99.90
27164;DHT22;14685;50.618;7.024;2022-12-07T17:25:01;9.60;99.90
27164;DHT22;14685;50.618;7.024;2022-12-07T17:27:29;9.50;99.90
27164;DHT22;14685;50.618;7.024;2022-12-07T17:29:57;9.50;99.90
27164;DHT22;14685;50.618;7.024;2022-12-07T17:32:24;9.50;99.90
27164;DHT22;14685;50.618;7.024;2022-12-07T17:34:51;9.50;99.90
27164;DHT22;14685;50.618;7.024;2022-12-07T17:37:19;9.50;99.90
27164;DHT22;14685;50.618;7.024;2022-12-07T17:39:47;9.50;99.90
27164;DHT22;14685;50.618;7.024;2022-12-07T17:42:16;9.50;99.90
27164;DHT22;14685;50.618;7.024;2022-12-07T17:45:07;9.50;99.90
27164;DHT22;14685;50.618;7.024;2022-12-07T17:47:36;9.50;99.90
27164;DHT22;14685;50.618;7.024;2022-12-07T17:50:06;9.40;99.90
27164;DHT22;14685;50.618;7.024;2022-12-07T17:52:33;9.40;99.90
27164;DHT22;14685;50.618;7.024;2022-12-07T17:55:19;9.40;99.90